Latest Weather Observations for Camden

IDN60801

Issued at 8:02 am EDT Sunday 14 February 2016 (issued every 30 minutes, with the page automatically refreshed every 10 minutes)

About weather observations | Map of weather stations | Latest weather observations for NSW | Other Formats
Station Details ID: 068192 Name: CAMDEN AIRPORT AWS Lat: -34.04 Lon: 150.69 Height: 73.9 m
Data from the previous 72 hours. | See also: Recent months at Camden
Date/Time
EDT
Temp
°C
App
Temp
°C
Dew
Point
Rel
Hum
%
Delta-T
°C
Wind Press
QNH
hPa
Press
MSL
hPa
Rain
since 9 am
mm
Dir
 
Spd
km/h
Gust
km/h
Spd
kts
Gust
kts
14/08:00am 19.5 22.6 18.7 95 0.5 CALM 0 0 0 0 1008.9 1008.6 0.0
14/07:30am 18.2 21.0 17.9 98 0.2 CALM 0 0 0 0 1008.9 1008.6 0.0
14/07:14am 17.8 20.4 17.6 99 0.1 CALM 0 0 0 0 1008.9 1008.6 0.0
14/07:00am 17.4 19.8 17.1 98 0.2 CALM 0 0 0 0 1008.9 1008.6 0.0
14/06:30am 17.6 20.1 17.3 98 0.2 CALM 0 0 0 0 1008.9 1008.6 0.0
14/06:12am 17.7 20.1 17.1 96 0.4 CALM 0 0 0 0 1008.6 1008.3 0.0
14/06:05am 17.7 20.1 17.1 96 0.4 CALM 0 0 0 0 1008.5 1008.2 0.0
14/06:00am 17.7 20.1 17.1 96 0.4 CALM 0 0 0 0 1008.5 1008.2 0.0
14/05:44am 17.9 20.5 17.4 97 0.3 CALM 0 0 0 0 1008.3 1008.0 0.0
14/05:30am 18.0 20.6 17.5 97 0.3 CALM 0 0 0 0 1008.2 1007.9 0.0
14/05:00am 18.0 20.6 17.5 97 0.3 CALM 0 0 0 0 1008.1 1007.8 0.0
14/04:30am 18.0 20.6 17.5 97 0.3 CALM 0 0 0 0 1008.2 1007.9 0.0
14/04:00am 18.0 20.0 17.0 94 0.6 SSE 2 6 1 3 1008.2 1007.9 0.0
14/03:36am 18.5 21.3 17.9 96 0.4 CALM 0 0 0 0 1008.3 1008.0 0.0
14/03:30am 18.5 21.3 17.9 96 0.4 CALM 0 0 0 0 1008.4 1008.1 0.0
14/03:08am 18.7 21.5 18.0 96 0.4 CALM 0 0 0 0 1008.5 1008.2 0.0
14/03:00am 18.8 21.6 18.0 95 0.5 CALM 0 0 0 0 1008.5 1008.2 0.0
14/02:30am 18.7 21.3 17.4 92 0.8 CALM 0 0 0 0 1008.8 1008.5 0.0
14/02:00am 19.3 22.2 18.1 93 0.7 CALM 0 0 0 0 1008.9 1008.6 0.0
14/01:30am 19.4 22.2 17.9 91 0.9 CALM 0 0 0 0 1009.3 1009.0 0.0
14/01:00am 19.5 21.8 17.8 90 1.0 SSW 2 6 1 3 1009.7 1009.4 0.0
14/12:34am 19.9 21.4 17.7 87 1.4 SSW 6 7 3 4 1009.9 1009.6 0.0
14/12:30am 20.0 21.6 17.8 87 1.4 SSW 6 7 3 4 1009.8 1009.5 0.0
14/12:16am 20.5 22.5 17.9 85 1.6 SSW 4 7 2 4 1010.0 1009.7 0.0
14/12:00am 20.7 23.6 18.1 85 1.6 CALM 0 0 0 0 1010.1 1009.8 0.0
 
Date/Time
EDT
Temp
°C
App
Temp
°C
Dew
Point
Rel
Hum
%
Delta-T
°C
Wind Press
QNH
hPa
Press
MSL
hPa
Rain
since 9 am
mm
Dir
 
Spd
km/h
Gust
km/h
Spd
kts
Gust
kts
13/11:30pm 21.2 24.0 18.0 82 2.0 CALM 0 0 0 0 1010.3 1010.0 0.0
13/11:00pm 21.9 24.6 17.7 77 2.6 CALM 0 0 0 0 1010.5 1010.2 0.0
13/10:30pm 22.8 23.9 18.1 75 2.9 ENE 9 13 5 7 1010.7 1010.4 0.0
13/10:00pm 23.4 24.2 18.1 72 3.3 ENE 11 15 6 8 1010.6 1010.3 0.0
13/09:30pm 23.9 24.5 17.6 68 3.9 ENE 11 15 6 8 1010.4 1010.1 0.0
13/09:00pm 24.4 24.7 17.1 63 4.5 ENE 11 13 6 7 1010.2 1009.9 0.0
13/08:30pm 25.3 27.1 17.5 62 4.9 ENE 4 9 2 5 1009.9 1009.6 0.0
13/08:00pm 26.2 26.5 17.8 60 5.3 ENE 13 19 7 10 1009.5 1009.2 0.0
13/07:30pm 27.1 27.1 18.1 58 5.7 ENE 15 22 8 12 1009.1 1008.8 0.0
13/07:00pm 28.1 27.3 17.9 54 6.5 ENE 19 24 10 13 1008.9 1008.6 0.0
13/06:30pm 29.2 28.3 18.3 51 7.0 ENE 20 28 11 15 1008.9 1008.6 0.0
13/06:00pm 30.0 29.2 18.1 49 7.7 ENE 19 28 10 15 1008.9 1008.6 0.0
13/05:30pm 31.2 30.9 18.2 46 8.4 ENE 17 24 9 13 1009.0 1008.7 0.0
13/05:00pm 32.3 30.3 14.0 33 11.2 N 17 20 9 11 1009.0 1008.7 0.0
13/04:30pm 32.2 29.7 13.4 32 11.3 N 19 24 10 13 1009.4 1009.1 0.0
13/04:00pm 31.8 30.0 14.4 34 10.7 NNE 17 24 9 13 1009.8 1009.5 0.0
13/03:30pm 32.0 30.5 16.3 39 9.9 N 19 26 10 14 1009.9 1009.6 0.0
13/03:00pm 30.9 29.1 14.5 37 10.0 NNE 17 24 9 13 1010.6 1010.3 0.0
13/02:30pm 30.8 30.0 16.0 40 9.2 N 15 20 8 11 1011.1 1010.8 0.0
13/02:00pm 30.6 29.6 16.6 43 8.8 NNE 17 22 9 12 1011.7 1011.4 0.0
13/01:30pm 29.9 30.0 17.4 47 7.9 N 13 22 7 12 1012.2 1011.9 0.0
13/01:00pm 29.3 29.1 17.5 49 7.5 NNE 15 24 8 13 1012.7 1012.4 0.0
13/12:30pm 28.5 28.1 17.1 50 7.2 NNE 15 24 8 13 1013.1 1012.8 0.0
13/12:00pm 27.3 27.2 16.9 53 6.5 NNE 13 20 7 11 1013.5 1013.2 0.0
13/11:30am 26.6 26.1 16.8 55 6.1 NNE 15 20 8 11 1013.8 1013.5 0.0
13/11:00am 26.6 26.9 17.9 59 5.5 N 13 22 7 12 1014.2 1013.9 0.0
13/10:30am 25.2 27.0 18.4 66 4.3 WNW 6 9 3 5 1014.3 1014.0 0.0
13/10:00am 24.2 26.0 18.4 70 3.7 N 6 13 3 7 1014.4 1014.1 0.0
13/09:30am 23.1 25.1 18.8 77 2.7 N 6 15 3 8 1014.5 1014.2 0.0
13/09:00am 21.3 25.0 19.9 92 0.9 CALM 0 0 0 0 1014.7 1014.4 0.0
13/08:50am 20.6 24.2 19.8 95 0.5 CALM 0 0 0 0 1014.8 1014.5 0.0
13/08:47am 20.5 24.2 20.0 97 0.3 CALM 0 0 0 0 1014.8 1014.5 0.0
13/08:30am 19.6 23.0 19.4 99 0.1 CALM 0 0 0 0 1014.9 1014.6 0.0
13/08:00am 19.0 22.2 18.8 99 0.1 CALM 0 0 0 0 1014.9 1014.6 0.0
13/07:30am 18.2 21.0 18.0 99 0.1 CALM 0 0 0 0 1014.6 1014.3 0.0
13/07:00am 17.1 19.5 16.9 99 0.1 CALM 0 0 0 0 1014.6 1014.3 0.0
13/06:30am 17.3 19.7 17.1 99 0.1 CALM 0 0 0 0 1014.3 1014.0 0.0
13/06:00am 17.4 19.9 17.2 99 0.1 CALM 0 0 0 0 1014.2 1013.9 0.0
13/05:42am 17.3 19.7 17.1 99 0.1 CALM 0 0 0 0 1014.1 1013.8 0.0
13/05:30am 17.3 19.7 17.1 99 0.1 CALM 0 0 0 0 1014.1 1013.8 0.0
13/05:00am 17.6 20.0 17.1 97 0.3 CALM 0 0 0 0 1014.1 1013.8 0.0
13/04:30am 18.1 20.8 17.8 98 0.2 CALM 0 0 0 0 1014.1 1013.8 0.0
13/04:00am 18.3 21.1 18.0 98 0.2 CALM 0 0 0 0 1014.3 1014.0 0.0
13/03:30am 18.7 21.7 18.4 98 0.2 CALM 0 0 0 0 1014.5 1014.2 0.0
13/03:00am 18.7 21.2 18.2 97 0.3 NW 2 6 1 3 1014.6 1014.3 0.0
13/02:30am 19.0 21.7 17.8 93 0.7 CALM 0 0 0 0 1014.6 1014.3 0.0
13/02:10am 19.4 22.4 18.4 94 0.6 CALM 0 0 0 0 1014.7 1014.4 0.0
13/02:00am 19.6 22.8 18.8 95 0.5 CALM 0 0 0 0 1014.8 1014.5 0.0
13/01:30am 19.7 22.6 18.2 91 0.9 CALM 0 0 0 0 1015.1 1014.8 0.0
13/01:00am 20.2 23.2 18.5 90 1.1 CALM 0 0 0 0 1015.3 1015.0 0.0
13/12:30am 20.4 23.4 18.5 89 1.2 CALM 0 6 0 3 1015.6 1015.2 0.0
13/12:00am 21.0 24.1 18.6 86 1.5 CALM 0 0 0 0 1015.8 1015.4 0.0
 
Date/Time
EDT
Temp
°C
App
Temp
°C
Dew
Point
Rel
Hum
%
Delta-T
°C
Wind Press
QNH
hPa
Press
MSL
hPa
Rain
since 9 am
mm
Dir
 
Spd
km/h
Gust
km/h
Spd
kts
Gust
kts
12/11:30pm 21.5 22.9 18.7 84 1.8 NE 9 11 5 6 1015.8 1015.4 0.0
12/11:00pm 21.8 23.6 18.4 81 2.1 NE 6 9 3 5 1015.9 1015.5 0.0
12/10:30pm 22.2 23.6 18.6 80 2.3 NE 9 13 5 7 1016.0 1015.6 0.0
12/10:00pm 22.7 24.6 18.9 79 2.4 ENE 7 11 4 6 1016.3 1015.9 0.0
12/09:30pm 23.0 24.9 18.5 76 2.8 E 6 11 3 6 1015.9 1015.5 0.0
12/09:00pm 23.3 24.9 18.2 73 3.2 E 7 11 4 6 1015.5 1015.1 0.0
12/08:30pm 23.9 26.0 18.1 70 3.6 ENE 4 15 2 8 1015.0 1014.7 0.0
12/08:00pm 24.5 25.2 18.0 67 4.1 E 11 17 6 9 1014.6 1014.3 0.0
12/07:30pm 25.5 24.9 16.6 58 5.5 ENE 15 24 8 13 1014.3 1014.0 0.0
12/07:00pm 26.6 24.9 16.2 52 6.4 ENE 20 28 11 15 1013.8 1013.5 0.0
12/06:30pm 27.5 26.6 16.8 52 6.7 ENE 17 26 9 14 1013.7 1013.4 0.0
12/06:00pm 28.2 26.9 15.8 47 7.6 ENE 17 28 9 15 1013.5 1013.2 0.0
12/05:30pm 29.0 28.2 17.2 49 7.5 ENE 17 24 9 13 1013.3 1013.0 0.0
12/05:00pm 29.4 29.2 17.6 49 7.5 ENE 15 26 8 14 1013.3 1013.0 0.0
12/04:30pm 29.4 28.9 17.9 50 7.3 ENE 17 26 9 14 1013.5 1013.2 0.0
12/04:00pm 30.5 31.2 17.9 47 8.1 NE 11 24 6 13 1013.5 1013.2 0.0
12/03:30pm 29.8 30.1 15.9 43 8.6 NNE 9 22 5 12 1013.9 1013.6 0.0
12/03:00pm 30.7 30.1 16.7 43 8.8 N 15 24 8 13 1014.3 1014.0 0.0
12/02:30pm 30.3 30.8 17.4 46 8.2 N 11 24 6 13 1014.4 1014.1 0.0
12/02:00pm 29.1 28.7 16.3 46 8.0 NNW 13 24 7 13 1014.8 1014.5 0.0
12/01:30pm 28.7 28.1 15.6 45 8.1 NNE 13 20 7 11 1015.1 1014.8 0.0
12/01:00pm 29.0 29.1 16.5 46 7.8 NNW 11 28 6 15 1015.6 1015.2 0.0
12/12:30pm 27.7 27.2 16.9 51 6.8 N 15 32 8 17 1016.1 1015.7 0.0
12/12:00pm 27.8 26.4 15.5 47 7.5 NE 17 24 9 13 1016.5 1016.1 0.0
12/11:30am 27.1 27.1 17.3 55 6.2 NNW 13 20 7 11 1016.8 1016.4 0.0
12/11:00am 26.9 26.6 17.4 56 6.0 N 15 20 8 11 1016.8 1016.4 0.0
12/10:30am 26.4 26.6 17.7 58 5.5 NNE 13 35 7 19 1017.2 1016.9 0.0
12/10:00am 25.3 27.2 18.5 66 4.3 ENE 6 9 3 5 1017.2 1016.9 0.0
12/09:30am 24.5 27.5 18.4 69 3.9 CALM 0 0 0 0 1017.3 1017.0 0.0
12/09:00am 23.5 26.7 18.8 75 3.0 CALM 0 0 0 0 1017.4 1017.1 0.0
12/08:30am 22.2 25.4 18.8 81 2.1 CALM 0 0 0 0 1017.3 1017.0 0.0
12/08:00am 20.7 24.0 19.0 90 1.1 CALM 0 6 0 3 1017.0 1016.7 0.0
12/07:30am 19.5 22.9 19.3 99 0.1 CALM 0 0 0 0 1016.7 1016.3 0.0
12/07:16am 18.7 21.7 18.5 99 0.1 CALM 0 0 0 0 1016.4 1016.0 0.0
12/07:00am 18.2 21.0 18.0 99 0.1 CALM 0 0 0 0 1016.3 1015.9 0.0
12/06:30am 18.3 21.2 18.1 99 0.1 CALM 0 0 0 0 1016.1 1015.7 0.0
12/06:26am 18.2 21.0 18.0 99 0.1 CALM 0 0 0 0 1016.0 1015.6 0.0
12/06:11am 18.3 21.1 18.0 98 0.2 CALM 0 0 0 0 1016.0 1015.6 0.0
12/06:00am 18.4 21.3 18.1 98 0.2 CALM 0 0 0 0 1015.8 1015.4 0.0
12/05:50am 18.6 21.6 18.4 99 0.1 CALM 0 0 0 0 1015.7 1015.3 0.0
12/05:45am 18.7 21.7 18.5 99 0.1 CALM 0 0 0 0 1015.7 1015.3 0.0
12/05:30am 18.8 21.9 18.6 99 0.1 CALM 0 0 0 0 1015.6 1015.2 0.0
12/05:00am 18.6 21.6 18.4 99 0.1 CALM 0 0 0 0 1015.2 1014.9 0.0
12/04:51am 18.5 21.4 18.2 98 0.2 CALM 0 0 0 0 1015.1 1014.8 0.0
12/04:30am 18.6 21.4 17.9 96 0.4 CALM 0 0 0 0 1015.0 1014.7 0.0
12/04:29am 18.6 21.4 17.9 96 0.4 CALM 0 0 0 0 1015.0 1014.7 0.0
12/04:00am 19.1 21.3 18.4 96 0.4 ESE 4 7 2 4 1014.9 1014.6 0.0
12/03:30am 19.6 22.0 18.9 96 0.4 SSE 4 6 2 3 1015.3 1015.0 0.0
12/03:00am 19.7 23.0 19.2 97 0.3 CALM 0 0 0 0 1015.6 1015.2 0.0
12/02:30am 19.8 23.1 19.0 95 0.5 CALM 0 0 0 0 1015.6 1015.2 0.0
12/02:00am 19.7 22.4 18.7 94 0.6 NNW 2 7 1 4 1015.8 1015.4 0.0
12/01:30am 19.8 22.8 18.5 92 0.8 CALM 0 0 0 0 1015.9 1015.5 0.0
12/01:00am 20.3 22.3 18.8 91 0.9 SSW 6 9 3 5 1016.3 1015.9 0.0
12/12:30am 20.6 23.4 18.9 90 1.1 SSW 2 9 1 5 1016.2 1015.8 0.0
12/12:00am 20.7 23.2 19.0 90 1.1 W 4 7 2 4 1016.4 1016.0 0.0
 
Date/Time
EDT
Temp
°C
App
Temp
°C
Dew
Point
Rel
Hum
%
Delta-T
°C
Wind Press
QNH
hPa
Press
MSL
hPa
Rain
since 9 am
mm
Dir
 
Spd
km/h
Gust
km/h
Spd
kts
Gust
kts
11/11:30pm 21.3 24.6 19.0 87 1.5 CALM 0 0 0 0 1016.4 1016.0 0.0
11/11:00pm 21.5 23.8 18.5 83 1.9 S 4 7 2 4 1016.7 1016.3 0.0
11/10:30pm 21.7 24.9 18.9 84 1.8 CALM 0 0 0 0 1016.9 1016.6 0.0
11/10:00pm 21.8 24.9 18.6 82 2.0 CALM 0 6 0 3 1016.7 1016.3 0.0
11/09:30pm 22.2 24.8 18.4 79 2.4 SE 2 6 1 3 1016.4 1016.0 0.0
11/09:00pm 22.5 24.2 18.5 78 2.5 SE 7 9 4 5 1015.9 1015.5 0.0
11/08:30pm 22.8 25.1 18.6 77 2.7 SSE 4 7 2 4 1015.7 1015.3 0.0
11/08:00pm 23.0 25.9 18.3 75 3.0 CALM 0 0 0 0 1015.2 1014.9 0.0
11/07:30pm 23.3 24.8 18.0 72 3.3 E 7 11 4 6 1014.9 1014.6 0.0
11/07:00pm 23.7 24.3 17.7 69 3.7 ESE 11 20 6 11 1014.7 1014.4 0.0
11/06:30pm 24.0 23.8 17.7 68 3.9 E 15 24 8 13 1014.0 1013.7 0.0
11/06:00pm 24.5 24.0 17.7 66 4.3 E 17 28 9 15 1013.4 1013.1 0.0
11/05:30pm 25.0 24.0 16.7 60 5.1 E 17 24 9 13 1013.5 1013.2 0.0
11/05:00pm 25.7 25.0 16.5 56 5.7 E 15 22 8 12 1013.5 1013.2 0.0
11/04:30pm 26.8 26.1 16.4 53 6.4 ENE 15 24 8 13 1013.5 1013.2 0.0
11/04:00pm 27.6 26.4 16.2 49 7.1 ENE 17 26 9 14 1013.1 1012.8 0.0
11/03:30pm 29.1 27.5 14.9 42 8.7 ENE 17 24 9 13 1013.3 1013.0 0.0
11/03:00pm 28.7 28.1 16.6 48 7.6 ENE 15 19 8 10 1013.5 1013.2 0.0
11/02:30pm 28.6 27.9 15.5 45 8.1 ENE 13 20 7 11 1013.9 1013.6 0.0
11/02:00pm 28.8 28.5 16.4 47 7.7 ENE 13 22 7 12 1014.2 1013.9 0.0
11/01:30pm 28.1 28.7 16.7 50 7.1 ENE 9 19 5 10 1014.5 1014.2 0.0
11/01:00pm 27.7 27.5 16.6 50 6.9 NE 13 20 7 11 1014.7 1014.4 0.0
11/12:30pm 27.3 27.7 17.2 54 6.3 NNE 11 20 6 11 1015.0 1014.7 0.0
11/12:00pm 27.0 27.3 16.9 54 6.3 NNE 11 19 6 10 1015.5 1015.1 0.0
11/11:30am 26.0 26.9 17.6 60 5.3 NNE 9 15 5 8 1015.8 1015.4 0.0
11/11:00am 25.5 26.0 16.6 58 5.5 NE 9 17 5 9 1015.9 1015.5 0.0
11/10:30am 25.5 26.3 17.4 61 5.1 ESE 9 15 5 8 1015.9 1015.5 0.0
11/10:00am 24.1 26.0 17.6 67 4.1 SSE 4 9 2 5 1016.0 1015.6 0.0
11/09:30am 22.8 24.0 16.8 69 3.7 ESE 6 9 3 5 1016.1 1015.7 0.0
11/09:00am 22.1 24.8 17.7 76 2.7 CALM 0 0 0 0 1016.1 1015.7 0.0
11/08:30am 20.1 22.5 16.9 82 1.9 CALM 0 0 0 0 1016.1 1015.7 0.0

Other Formats:

Comma delimited format used in spreadsheet applications
http://www.bom.gov.au/fwo/IDN60801/IDN60801.94755.axf

JavaScript Object Notation format (JSON) in row-major order
http://www.bom.gov.au/fwo/IDN60801/IDN60801.94755.json